< < Back
Terminal Aerodrome Forecast


Current Version              Previous Versions:   1  2  3  4  5  6  7  8  9  

Terminal Aerodrome Forecast

453
FTUS42 KFFC 261722
TAFATL
TAF
KATL 261722Z 2618/2724 10010KT P6SM VCSH SCT040 BKN070
      TEMPO 2618/2622 VRB15G25KT 4SM -TSRA BKN035CB
     FM270100 14005KT P6SM SCT090 BKN250
     FM271500 19007KT P6SM SCT035
     FM271800 22009KT P6SM VCSH SCT050 PROB30 2720/2724 5SM -TSRA
      BKN035CB=



Latest METAR

003
SAUS70 KWBC 262000
MTRATL
METAR KATL 261952Z 20003KT 10SM FEW034CB SCT055 BKN110 23/21 A3012 RMK
AO2 WSHFT 1839 RAE38 TSE40 SLP191 MOV SE CB SW-S AND DSNT SE
MOV SE P0028 T02280206


USA.gov is the U.S. government's official web portal to all federal, state and local government web resources and services.